Latest Weather Observations for Warra

IDT60801

Issued at 9:35 pm EST Friday 22 August 2014 (issued every 30 minutes, with the page automatically refreshed every 10 minutes)

About weather observations | Map of weather stations | Latest weather observations for TAS | Other Formats
Station Details ID: 097024 Name: WARRA Lat: -43.06 Lon: 146.70 Height: 495.0 m
Data from the previous 72 hours. | See also: Recent months at Warra
Date/Time
EST
Temp
°C
App
Temp
°C
Dew
Point
Rel
Hum
%
Delta-T
°C
Wind Press
QNH
hPa
Press
MSL
hPa
Rain
since 9 am
mm
Dir
 
Spd
km/h
Gust
km/h
Spd
kts
Gust
kts
22/09:30pm 4.8 2.2 3.3 90 0.6 N 6 7 3 4 - - 0.2
22/09:00pm 4.6 1.3 2.6 87 0.8 W 9 13 5 7 - - 0.2
22/08:30pm 5.3 3.8 2.8 84 1.1 CALM 0 0 0 0 - - 0.2
22/08:00pm 5.9 3.2 2.7 80 1.4 WSW 6 9 3 5 - - 0.2
22/07:30pm 6.6 3.9 2.9 77 1.6 W 6 11 3 6 - - 0.2
22/07:00pm 8.3 5.6 3.6 72 2.1 N 7 13 4 7 - - 0.2
22/06:30pm 9.2 6.1 3.4 67 2.6 N 9 15 5 8 - - 0.2
22/06:00pm 10.1 5.8 3.4 63 3.0 NNE 15 24 8 13 - - 0.2
22/05:30pm 9.4 6.8 3.2 65 2.8 N 6 11 3 6 - - 0.2
22/05:00pm 10.4 7.8 3.4 62 3.1 NNW 6 13 3 7 - - 0.2
22/04:30pm 11.5 8.8 3.8 59 3.5 N 7 9 4 5 - - 0.2
22/04:00pm 11.6 8.5 3.6 58 3.7 N 9 19 5 10 - - 0.2
22/03:30pm 11.6 8.0 3.1 56 3.8 N 11 22 6 12 - - 0.2
22/03:00pm 12.2 8.4 3.9 57 3.8 N 13 24 7 13 - - 0.2
22/02:30pm 12.6 9.7 4.6 58 3.8 N 9 17 5 9 - - 0.2
22/02:00pm 12.2 9.7 4.9 61 3.4 NE 7 11 4 6 - - 0.2
22/01:30pm 12.1 8.7 4.1 58 3.7 NE 11 20 6 11 - - 0.2
22/01:00pm 11.7 8.9 5.3 65 3.0 E 9 13 5 7 - - 0.2
22/12:30pm 11.5 8.5 4.3 61 3.3 E 9 13 5 7 - - 0.2
22/12:00pm 11.5 8.6 4.9 64 3.1 E 9 11 5 6 - - 0.2
22/11:30am 12.0 9.2 5.2 63 3.2 NE 9 11 5 6 - - 0.0
22/11:00am 12.0 9.2 5.2 63 3.2 N 9 15 5 8 - - 0.0
22/10:30am 11.1 8.2 4.6 64 3.0 N 9 17 5 9 - - 0.0
22/10:00am 10.0 7.4 4.4 68 2.6 N 7 11 4 6 - - 0.0
22/09:30am 9.2 6.7 4.6 73 2.1 NNE 7 11 4 6 - - 0.0
22/09:00am 8.4 6.1 5.7 83 1.3 N 7 15 4 8 - - 0.0
22/08:30am 7.0 4.8 6.4 96 0.3 NNW 7 13 4 7 - - 0.0
22/08:00am 5.1 2.7 5.1 100 0.0 N 7 11 4 6 - - 0.0
22/07:30am 3.4 1.6 3.4 100 0.0 N 2 7 1 4 - - 0.0
22/07:00am 1.6 -0.5 1.6 100 0.0 WSW 2 6 1 3 - - 0.0
22/06:30am 1.6 -1.5 1.6 100 0.0 W 7 9 4 5 - - 0.0
22/06:00am 2.1 -1.3 2.1 100 0.0 WSW 9 11 5 6 - - 0.0
22/05:30am 2.2 -0.6 2.2 100 0.0 W 6 9 3 5 - - 0.0
22/05:00am 2.4 -0.3 2.4 100 0.0 NW 6 7 3 4 - - 0.0
22/04:30am 1.5 -1.6 1.5 100 0.0 WNW 7 7 4 4 - - 0.0
22/04:00am 1.7 -0.4 1.7 100 0.0 WNW 2 7 1 4 - - 0.0
22/03:30am 2.1 -0.7 2.0 99 0.0 NW 6 7 3 4 - - 0.0
22/03:00am 2.9 0.0 2.8 99 0.0 WNW 7 9 4 5 - - 0.0
22/02:30am 4.5 1.9 4.4 99 0.0 NNE 7 9 4 5 - - 0.0
22/02:00am 4.3 2.3 4.3 100 0.0 N 4 9 2 5 - - 0.0
22/01:30am 3.1 0.3 3.1 100 0.0 WNW 7 9 4 5 - - 0.0
22/01:00am 3.2 0.6 3.2 100 0.0 NW 6 7 3 4 - - 0.0
22/12:30am 3.3 1.1 3.3 100 0.0 NNW 4 7 2 4 - - 0.0
22/12:00am 3.6 0.9 3.6 100 0.0 NNW 7 9 4 5 - - 0.0
 
Date/Time
EST
Temp
°C
App
Temp
°C
Dew
Point
Rel
Hum
%
Delta-T
°C
Wind Press
QNH
hPa
Press
MSL
hPa
Rain
since 9 am
mm
Dir
 
Spd
km/h
Gust
km/h
Spd
kts
Gust
kts
21/11:30pm 4.3 1.3 4.3 100 0.0 N 9 13 5 7 - - 0.0
21/11:00pm 4.2 1.8 4.2 100 0.0 N 6 7 3 4 - - 0.0
21/10:30pm 4.5 2.1 4.5 100 0.0 N 6 7 3 4 - - 0.0
21/10:00pm 5.1 2.9 5.1 100 0.0 NNE 6 9 3 5 - - 0.0
21/09:30pm 4.7 2.4 4.6 99 0.0 NNW 6 9 3 5 - - 0.0
21/09:00pm 5.0 2.7 4.9 99 0.0 N 6 7 3 4 - - 0.0
21/08:30pm 4.6 2.2 4.5 99 0.0 N 6 7 3 4 - - 0.0
21/08:00pm 5.2 3.7 4.9 98 0.1 NNE 2 7 1 4 - - 0.0
21/07:30pm 5.1 3.8 4.2 94 0.4 CALM 0 0 0 0 - - 0.0
21/07:00pm 5.4 4.1 4.2 92 0.5 CALM 0 0 0 0 - - 0.0
21/06:30pm 5.8 4.1 3.8 87 0.9 WSW 2 6 1 3 - - 0.0
21/06:00pm 7.1 4.8 4.6 84 1.1 SE 6 7 3 4 - - 0.0
21/05:30pm 8.0 5.5 4.6 79 1.5 ESE 7 9 4 5 - - 0.0
21/05:00pm 8.8 6.2 4.0 72 2.2 ENE 7 13 4 7 - - 0.0
21/04:30pm 9.2 6.7 4.0 70 2.3 ENE 6 9 3 5 - - 0.0
21/04:00pm 9.5 7.1 4.3 70 2.4 ESE 6 9 3 5 - - 0.0
21/03:30pm 10.6 8.1 4.7 67 2.7 SE 7 11 4 6 - - 0.0
21/03:00pm 10.9 8.6 4.6 65 2.9 E 6 9 3 5 - - 0.0
21/02:30pm 10.7 8.2 4.6 66 2.8 E 7 11 4 6 - - 0.0
21/02:00pm 10.6 8.2 5.2 69 2.5 E 7 13 4 7 - - 0.0
21/01:30pm 10.5 8.2 5.5 71 2.4 E 7 11 4 6 - - 0.0
21/01:00pm 10.4 8.1 5.8 73 2.2 E 7 11 4 6 - - 0.0
21/12:30pm 9.9 7.6 5.9 76 1.9 E 7 11 4 6 - - 0.0
21/12:00pm 8.5 6.2 5.6 82 1.3 ESE 7 9 4 5 - - 0.0
21/11:30am 8.2 6.5 7.6 96 0.3 ENE 6 9 3 5 - - 0.0
21/11:00am 6.4 4.4 6.4 100 0.0 E 6 9 3 5 - - 0.0
21/10:30am 5.4 3.2 5.4 100 0.0 E 6 7 3 4 - - 0.0
21/10:00am 4.3 2.7 4.3 100 0.0 SSE 2 7 1 4 - - 0.0
21/09:30am 4.0 1.5 4.0 100 0.0 N 6 7 3 4 - - 0.0
21/09:00am 3.5 1.7 3.5 100 0.0 SE 2 6 1 3 - - 0.2
21/08:30am 3.3 1.1 3.3 100 0.0 SE 4 7 2 4 - - 0.2
21/08:00am 3.3 1.9 3.3 100 0.0 CALM 0 6 0 3 - - 0.2
21/07:30am 1.4 -2.1 1.4 100 0.0 WSW 9 11 5 6 - - 0.2
21/07:00am 1.3 -2.6 1.3 100 0.0 W 11 13 6 7 - - 0.2
21/06:30am 1.7 -1.7 1.7 100 0.0 W 9 11 5 6 - - 0.2
21/06:00am 1.5 -2.0 1.5 100 0.0 W 9 9 5 5 - - 0.2
21/05:30am 1.0 -1.2 1.0 100 0.0 W 2 7 1 4 - - 0.2
21/05:00am 0.5 -2.7 0.5 100 0.0 W 7 7 4 4 - - 0.2
21/04:30am 1.1 -0.7 1.1 100 0.0 CALM 0 0 0 0 - - 0.2
21/04:00am 1.9 -0.2 1.9 100 0.0 WNW 2 6 1 3 - - 0.2
21/03:30am 1.3 -1.8 1.3 100 0.0 W 7 7 4 4 - - 0.2
21/03:00am 2.2 0.6 2.2 100 0.0 CALM 0 0 0 0 - - 0.2
21/02:30am 3.1 1.6 3.1 100 0.0 CALM 0 0 0 0 - - 0.2
21/02:00am 3.9 2.6 3.9 100 0.0 CALM 0 0 0 0 - - 0.2
21/01:30am 4.9 3.8 4.9 100 0.0 CALM 0 0 0 0 - - 0.2
21/01:00am 4.9 3.8 4.9 100 0.0 CALM 0 6 0 3 - - 0.2
21/12:30am 4.9 3.8 4.9 100 0.0 CALM 0 0 0 0 - - 0.2
21/12:00am 4.9 3.8 4.9 100 0.0 CALM 0 0 0 0 - - 0.2
 
Date/Time
EST
Temp
°C
App
Temp
°C
Dew
Point
Rel
Hum
%
Delta-T
°C
Wind Press
QNH
hPa
Press
MSL
hPa
Rain
since 9 am
mm
Dir
 
Spd
km/h
Gust
km/h
Spd
kts
Gust
kts
20/11:30pm 4.6 3.4 4.6 100 0.0 CALM 0 0 0 0 - - 0.2
20/11:00pm 4.7 3.5 4.7 100 0.0 CALM 0 0 0 0 - - 0.2
20/10:30pm 4.8 3.6 4.8 100 0.0 CALM 0 0 0 0 - - 0.2
20/10:00pm 5.2 4.1 5.2 100 0.0 CALM 0 6 0 3 - - 0.2
20/09:30pm 4.6 2.3 4.6 100 0.0 S 6 7 3 4 - - 0.2
20/09:00pm 3.8 1.1 3.8 100 0.0 SSW 7 9 4 5 - - 0.2
20/08:30pm 3.0 0.2 3.0 100 0.0 SW 7 9 4 5 - - 0.2
20/08:00pm 3.5 0.7 3.4 99 0.0 SW 7 11 4 6 - - 0.2
20/07:30pm 3.5 0.7 2.9 96 0.2 SW 7 9 4 5 - - 0.2
20/07:00pm 4.1 1.5 3.2 94 0.4 SW 6 7 3 4 - - 0.2
20/06:30pm 4.5 1.6 2.8 89 0.7 W 7 11 4 6 - - 0.2
20/06:00pm 5.2 2.0 2.9 85 1.0 W 9 13 5 7 - - 0.2
20/05:30pm 6.8 3.4 3.8 81 1.3 WSW 11 15 6 8 - - 0.2
20/05:00pm 7.4 4.5 4.4 81 1.3 W 9 13 5 7 - - 0.2
20/04:30pm 8.4 5.1 4.4 76 1.8 WSW 11 17 6 9 - - 0.2
20/04:00pm 8.7 6.2 4.5 75 1.9 SW 7 15 4 8 - - 0.2
20/03:30pm 8.7 5.1 3.1 68 2.5 SW 11 15 6 8 - - 0.2
20/03:00pm 10.6 7.1 3.6 62 3.2 W 11 17 6 9 - - 0.2
20/02:30pm 10.2 6.6 3.0 61 3.2 WSW 11 19 6 10 - - 0.2
20/02:00pm 9.0 5.1 3.2 67 2.6 WSW 13 20 7 11 - - 0.2
20/01:30pm 10.4 6.2 3.7 63 3.0 W 15 20 8 11 - - 0.2
20/01:00pm 9.4 5.2 3.6 67 2.6 WSW 15 24 8 13 - - 0.2
20/12:30pm 9.3 4.7 3.9 69 2.4 W 17 24 9 13 - - 0.0
20/12:00pm 9.3 5.1 3.9 69 2.4 W 15 26 8 14 - - 0.0
20/11:30am 9.0 5.1 3.6 69 2.4 W 13 22 7 12 - - 0.0
20/11:00am 9.1 6.2 4.5 73 2.1 W 9 15 5 8 - - 0.0
20/10:30am 7.6 4.6 4.0 78 1.6 W 9 19 5 10 - - 0.0
20/10:00am 6.7 3.7 3.9 82 1.2 W 9 15 5 8 - - 0.0
20/09:30am 6.2 3.3 4.5 89 0.8 W 9 15 5 8 - - 0.0
20/09:00am 5.4 2.5 4.8 96 0.3 WSW 9 17 5 9 - - 0.0
20/08:30am 5.0 2.7 4.9 99 0.0 WSW 6 7 3 4 - - 0.0
20/08:00am 4.7 2.4 4.6 99 0.0 W 6 11 3 6 - - 0.0
20/07:30am 4.0 1.0 3.9 99 0.0 WNW 9 15 5 8 - - 0.0
20/07:00am 3.4 0.6 3.4 100 0.0 WNW 7 13 4 7 - - 0.0
20/06:30am 2.8 -0.1 2.8 100 0.0 WNW 7 13 4 7 - - 0.0
20/06:00am 2.9 0.1 2.9 100 0.0 WNW 7 13 4 7 - - 0.0
20/05:30am 2.7 -0.2 2.7 100 0.0 W 7 11 4 6 - - 0.0
20/05:00am 1.9 -0.2 1.9 100 0.0 NW 2 9 1 5 - - 0.0
20/04:30am 2.2 0.2 2.2 100 0.0 NW 2 7 1 4 - - 0.0
20/04:00am 2.1 -0.7 2.1 100 0.0 WNW 6 7 3 4 - - 0.0
20/03:30am 2.1 -0.9 2.1 100 0.0 NW 7 9 4 5 - - 0.0
20/03:00am 2.1 -0.3 2.1 100 0.0 W 4 9 2 5 - - 0.0
20/02:30am 2.4 -0.3 2.4 100 0.0 S 6 7 3 4 - - 0.0
20/02:00am 2.1 -0.3 2.0 99 0.0 WSW 4 7 2 4 - - 0.0
20/01:30am 2.0 -0.1 1.9 99 0.0 W 2 7 1 4 - - 0.0
20/01:00am 2.0 -0.4 1.9 99 0.0 NW 4 9 2 5 - - 0.0
20/12:30am 2.6 -0.2 2.2 97 0.2 NW 6 9 3 5 - - 0.0
20/12:00am 1.9 -0.3 0.9 93 0.4 W 2 6 1 3 - - 0.0
 
Date/Time
EST
Temp
°C
App
Temp
°C
Dew
Point
Rel
Hum
%
Delta-T
°C
Wind Press
QNH
hPa
Press
MSL
hPa
Rain
since 9 am
mm
Dir
 
Spd
km/h
Gust
km/h
Spd
kts
Gust
kts
19/11:30pm 3.1 0.1 1.9 92 0.5 WNW 7 13 4 7 - - 0.0
19/11:00pm 3.3 -0.4 2.1 92 0.5 W 11 17 6 9 - - 0.0
19/10:30pm 3.3 -0.1 2.0 91 0.5 W 9 17 5 9 - - 0.0
19/10:00pm 3.5 0.2 2.2 91 0.5 WNW 9 15 5 8 - - 0.0

Other Formats:

Comma delimited format used in spreadsheet applications
http://www.bom.gov.au/fwo/IDT60801/IDT60801.95962.axf

JavaScript Object Notation format (JSON) in row-major order
http://www.bom.gov.au/fwo/IDT60801/IDT60801.95962.json